Time;durP1;ratioP1;P1;durP2;ratioP2;P2;SDS_P1;SDS_P2;PMS_P1;PMS_P2;Temp;Humidity;BMP_temperature;BMP_pressure;BME280_temperature;BME280_humidity;BME280_pressure;Samples;Min_cycle;Max_cycle;Signal;HPM_P1;HPM_P2
2020/12/19 00:00:07;;;;;;;0.20;0.20;;;;;;;5.79;100.00;100676.41;5005016;28;20826;-53
2020/12/19 00:02:33;;;;;;;0.20;0.20;;;;;;;5.63;100.00;100679.09;5006433;28;20514;-53
2020/12/19 00:05:00;;;;;;;0.30;0.20;;;;;;;5.76;100.00;100686.97;5010315;28;20531;-53
2020/12/19 00:07:27;;;;;;;0.30;0.10;;;;;;;5.51;100.00;100687.03;4999673;28;20465;-53
2020/12/19 00:09:53;;;;;;;0.20;0.20;;;;;;;5.31;100.00;100678.25;5004264;28;20454;-53
2020/12/19 00:12:21;;;;;;;0.20;0.20;;;;;;;5.27;100.00;100668.59;5008129;28;20453;-53
2020/12/19 00:14:47;;;;;;;0.20;0.20;;;;;;;5.19;100.00;100665.94;5003600;28;20497;-53
2020/12/19 00:17:13;;;;;;;0.20;0.20;;;;;;;5.02;100.00;100649.28;5006181;28;20460;-53
2020/12/19 00:19:40;;;;;;;0.30;0.20;;;;;;;4.94;100.00;100646.66;5002511;28;20510;-53
2020/12/19 00:22:07;;;;;;;0.27;0.17;;;;;;;4.98;100.00;100644.91;4999397;28;20863;-53
2020/12/19 00:24:33;;;;;;;0.20;0.20;;;;;;;5.19;100.00;100644.00;5003603;28;20981;-53
2020/12/19 00:26:59;;;;;;;0.20;0.10;;;;;;;5.35;100.00;100653.66;5006069;28;20460;-53
2020/12/19 00:29:25;;;;;;;0.30;0.20;;;;;;;5.43;100.00;100637.81;5002039;28;20448;-53
2020/12/19 00:31:51;;;;;;;1.33;1.33;;;;;;;5.16;100.00;100636.97;5002548;28;20453;-53
2020/12/19 00:34:18;;;;;;;0.20;0.13;;;;;;;5.24;100.00;100639.63;5007586;28;20504;-52
2020/12/19 00:36:45;;;;;;;0.30;0.10;;;;;;;5.18;100.00;100640.47;5009829;28;20456;-53
2020/12/19 00:39:11;;;;;;;0.20;0.10;;;;;;;5.13;100.00;100642.25;5005721;28;20502;-52
2020/12/19 00:41:37;;;;;;;0.20;0.10;;;;;;;5.12;100.00;100635.22;5006230;28;20453;-52
2020/12/19 00:44:03;;;;;;;0.30;0.20;;;;;;;5.28;100.00;100629.06;5007260;28;20480;-52
2020/12/19 00:46:29;;;;;;;0.27;0.20;;;;;;;5.19;100.00;100641.38;5010161;28;20448;-52
2020/12/19 00:48:55;;;;;;;0.20;0.10;;;;;;;5.13;100.00;100626.44;5005616;28;20456;-52
2020/12/19 00:51:23;;;;;;;0.20;0.13;;;;;;;5.41;100.00;100629.91;5002965;28;20442;-53
2020/12/19 00:53:50;;;;;;;0.20;0.20;;;;;;;5.33;100.00;100629.91;5007365;28;20527;-51
2020/12/19 00:56:25;;;;;;;0.20;0.10;;;;;;;5.37;100.00;100622.91;5015684;28;20992;-52
2020/12/19 00:58:53;;;;;;;0.20;0.20;;;;;;;5.19;100.00;100618.53;5024423;28;20506;-52
2020/12/19 01:01:21;;;;;;;0.20;0.20;;;;;;;5.14;100.00;100628.19;5002841;28;20551;-52
2020/12/19 01:03:48;;;;;;;0.20;0.10;;;;;;;5.32;100.00;100622.00;5011848;28;20529;-52
2020/12/19 01:06:16;;;;;;;0.20;0.10;;;;;;;5.29;100.00;100614.13;5010793;28;20500;-52
2020/12/19 01:08:56;;;;;;;0.30;0.20;;;;;;;5.26;100.00;100616.78;4996190;28;20458;-52
2020/12/19 01:11:34;;;;;;;0.20;0.20;;;;;;;5.44;100.00;100618.47;5004690;28;20467;-52
2020/12/19 01:14:01;;;;;;;0.20;0.20;;;;;;;5.55;100.00;100612.31;5013390;28;20520;-52
2020/12/19 01:16:29;;;;;;;0.20;0.20;;;;;;;5.21;100.00;100614.16;5005055;28;20491;-52
2020/12/19 01:18:57;;;;;;;0.20;0.20;;;;;;;5.22;100.00;100615.03;5002489;28;20449;-52
2020/12/19 01:21:27;;;;;;;0.20;0.13;;;;;;;5.13;100.00;100620.31;5006132;28;20460;-52
2020/12/19 01:23:55;;;;;;;0.20;0.10;;;;;;;5.11;100.00;100620.31;5009343;28;20505;-51
2020/12/19 01:26:22;;;;;;;0.20;0.20;;;;;;;5.22;100.00;100615.91;5006071;28;20444;-52
2020/12/19 01:28:48;;;;;;;0.40;0.40;;;;;;;5.26;100.00;100603.59;5002213;28;20452;-52
2020/12/19 01:31:18;;;;;;;0.20;0.10;;;;;;;5.33;100.00;100602.69;5005377;28;20459;-52
2020/12/19 01:33:46;;;;;;;0.20;0.10;;;;;;;5.20;100.00;100593.91;5009097;28;20441;-52
2020/12/19 01:36:16;;;;;;;0.20;0.10;;;;;;;5.38;100.00;100600.94;5006203;28;20868;-51
2020/12/19 01:38:43;;;;;;;0.73;0.73;;;;;;;5.55;100.00;100608.78;5002137;28;20471;-52
2020/12/19 01:41:10;;;;;;;0.33;0.33;;;;;;;5.32;100.00;100617.63;5005151;28;20449;-52
2020/12/19 01:43:49;;;;;;;0.20;0.10;;;;;;;5.12;100.00;100615.91;5009141;28;20460;-52
2020/12/19 01:46:47;;;;;;;0.20;0.10;;;;;;;5.06;100.00;100609.75;5008499;28;20941;-51
2020/12/19 01:49:13;;;;;;;0.20;0.20;;;;;;;5.31;100.00;100600.06;4990300;28;20867;-52
2020/12/19 01:51:40;;;;;;;0.20;0.20;;;;;;;5.22;100.00;100593.94;5008407;28;21004;-52
2020/12/19 01:54:09;;;;;;;0.20;0.10;;;;;;;5.23;100.00;100593.94;5006240;28;20531;-52
2020/12/19 01:56:44;;;;;;;0.30;0.20;;;;;;;5.39;100.00;100596.53;5008611;28;20484;-52
2020/12/19 01:59:14;;;;;;;0.20;0.20;;;;;;;5.39;100.00;100586.88;5020234;28;20549;-52
2020/12/19 02:01:52;;;;;;;0.20;0.20;;;;;;;5.65;100.00;100590.31;5002794;28;20820;-52
2020/12/19 02:04:20;;;;;;;0.20;0.20;;;;;;;5.39;100.00;100586.00;5010349;28;20484;-52
2020/12/19 02:06:48;;;;;;;0.20;0.10;;;;;;;5.25;100.00;100575.50;5005327;28;20445;-52
2020/12/19 02:09:16;;;;;;;0.20;0.10;;;;;;;5.35;100.00;100582.50;5008060;28;20457;-52
2020/12/19 02:11:42;;;;;;;0.30;0.30;;;;;;;5.53;100.00;100592.09;5005325;28;20503;-52
2020/12/19 02:14:10;;;;;;;0.20;0.10;;;;;;;5.30;100.00;100568.44;5028199;23;20489;-50
2020/12/19 02:16:37;;;;;;;0.20;0.10;;;;;;;5.01;100.00;100574.66;5032954;28;21015;-51
2020/12/19 02:19:13;;;;;;;1.07;1.07;;;;;;;5.10;100.00;100570.25;5034324;28;20813;-51
2020/12/19 02:21:41;;;;;;;0.20;0.10;;;;;;;4.95;100.00;100548.31;5034588;28;20814;-51
2020/12/19 02:24:07;;;;;;;0.20;0.10;;;;;;;4.99;100.00;100562.38;5034039;28;20482;-51
2020/12/19 02:26:33;;;;;;;0.20;0.10;;;;;;;4.86;100.00;100561.50;5022493;28;20950;-52
2020/12/19 02:28:59;;;;;;;0.20;0.10;;;;;;;4.85;100.00;100564.13;5027588;28;20448;-51
2020/12/19 02:31:26;;;;;;;0.30;0.20;;;;;;;4.79;100.00;100567.63;5026345;28;20459;-51
2020/12/19 02:33:52;;;;;;;0.20;0.10;;;;;;;4.72;100.00;100573.81;5019484;28;20459;-51
2020/12/19 02:36:18;;;;;;;0.20;0.10;;;;;;;5.05;100.00;100568.47;5022071;28;20496;-51
2020/12/19 02:38:44;;;;;;;0.20;0.20;;;;;;;5.01;100.00;100569.38;5027643;28;20464;-49
2020/12/19 02:41:11;;;;;;;0.20;0.10;;;;;;;4.95;100.00;100560.63;5024390;28;20448;-49
2020/12/19 02:43:37;;;;;;;0.20;0.10;;;;;;;5.06;100.00;100554.44;5020253;28;20451;-49
2020/12/19 02:46:03;;;;;;;0.20;0.10;;;;;;;4.88;100.00;100553.59;5023678;28;20461;-49
2020/12/19 02:48:29;;;;;;;0.20;0.10;;;;;;;5.02;100.00;100555.31;5021035;28;20458;-50
2020/12/19 02:50:56;;;;;;;0.20;0.20;;;;;;;4.84;100.00;100557.13;5024047;28;20463;-49
2020/12/19 02:53:22;;;;;;;0.20;0.10;;;;;;;4.81;100.00;100555.38;5028375;28;20525;-49
2020/12/19 02:55:49;;;;;;;0.20;0.10;;;;;;;4.86;100.00;100550.97;5026295;28;20652;-50
2020/12/19 02:58:15;;;;;;;0.20;0.10;;;;;;;4.97;100.00;100558.84;5007275;28;20452;-49
2020/12/19 03:00:41;;;;;;;0.20;0.10;;;;;;;4.83;100.00;100547.47;5020987;28;20456;-50
2020/12/19 03:03:07;;;;;;;0.20;0.10;;;;;;;5.01;100.00;100548.31;5025116;28;20536;-49
2020/12/19 03:05:33;;;;;;;0.20;0.20;;;;;;;4.84;100.00;100551.84;5019090;28;20477;-49
2020/12/19 03:07:59;;;;;;;0.30;0.20;;;;;;;4.91;100.00;100548.31;5020301;28;20455;-49
2020/12/19 03:10:25;;;;;;;0.20;0.20;;;;;;;4.90;100.00;100544.81;5020733;28;20457;-49
2020/12/19 03:12:51;;;;;;;0.20;0.10;;;;;;;4.87;100.00;100549.22;5008245;28;20953;-49
2020/12/19 03:15:17;;;;;;;0.20;0.20;;;;;;;4.97;100.00;100543.94;5026371;28;20573;-49
2020/12/19 03:17:43;;;;;;;0.30;0.23;;;;;;;4.99;100.00;100546.56;5019765;28;20448;-49
2020/12/19 03:20:10;;;;;;;0.20;0.10;;;;;;;5.04;100.00;100536.88;5020785;28;20456;-49
2020/12/19 03:22:36;;;;;;;0.30;0.20;;;;;;;5.07;100.00;100542.13;5026373;28;20503;-50
2020/12/19 03:25:02;;;;;;;0.30;0.20;;;;;;;5.03;100.00;100537.75;5026297;28;20463;-49
2020/12/19 03:27:28;;;;;;;0.20;0.20;;;;;;;4.96;100.00;100541.31;5026771;28;20456;-49
2020/12/19 03:29:54;;;;;;;16.43;5.10;;;;;;;4.93;100.00;100536.88;5026257;28;20447;-50
2020/12/19 03:32:21;;;;;;;0.20;0.10;;;;;;;4.80;100.00;100529.91;5026556;28;20807;-50
2020/12/19 03:34:47;;;;;;;0.20;0.10;;;;;;;4.92;100.00;100535.13;5026198;28;20471;-50
2020/12/19 03:37:13;;;;;;;0.20;0.10;;;;;;;4.91;100.00;100522.84;5020151;28;20456;-50
2020/12/19 03:39:39;;;;;;;0.20;0.10;;;;;;;5.04;100.00;100537.75;5019743;28;20460;-50
2020/12/19 03:42:05;;;;;;;0.20;0.10;;;;;;;5.08;100.00;100537.78;5019663;28;20462;-50
2020/12/19 03:44:31;;;;;;;0.20;0.20;;;;;;;5.10;100.00;100528.09;5019495;28;20519;-51
2020/12/19 03:46:57;;;;;;;0.20;0.10;;;;;;;5.06;100.00;100528.09;5025725;28;20526;-50
2020/12/19 03:49:24;;;;;;;0.20;0.10;;;;;;;5.11;100.00;100529.84;5026371;28;20452;-50
2020/12/19 03:51:50;;;;;;;0.20;0.10;;;;;;;5.08;100.00;100533.38;5018847;28;20444;-50
2020/12/19 03:54:16;;;;;;;0.20;0.10;;;;;;;5.09;100.00;100523.72;5019163;28;20994;-50
2020/12/19 03:56:42;;;;;;;0.23;0.20;;;;;;;4.71;100.00;100522.91;5025246;28;20911;-50
2020/12/19 03:59:09;;;;;;;0.20;0.10;;;;;;;4.79;100.00;100516.72;5026039;28;21061;-50
2020/12/19 04:01:35;;;;;;;0.20;0.20;;;;;;;4.70;100.00;100517.63;5019468;28;20458;-50
2020/12/19 04:04:01;;;;;;;0.20;0.10;;;;;;;4.78;100.00;100510.59;5009716;28;20503;-50
2020/12/19 04:06:27;;;;;;;0.50;0.50;;;;;;;4.84;100.00;100521.13;5017757;28;20448;-50
2020/12/19 04:08:53;;;;;;;0.20;0.17;;;;;;;4.72;100.00;100514.13;5018930;28;20959;-50
2020/12/19 04:11:19;;;;;;;0.20;0.20;;;;;;;4.78;100.00;100515.84;5022918;28;20461;-50
2020/12/19 04:13:45;;;;;;;2.40;2.07;;;;;;;4.75;100.00;100519.38;5016053;28;20448;-50
2020/12/19 04:16:12;;;;;;;0.23;0.10;;;;;;;4.55;100.00;100517.66;5024894;28;21000;-50
2020/12/19 04:18:38;;;;;;;0.20;0.17;;;;;;;4.57;100.00;100522.03;5025630;28;20452;-51
2020/12/19 04:21:07;;;;;;;0.20;0.10;;;;;;;4.61;100.00;100522.91;5019790;28;20444;-50
2020/12/19 04:23:34;;;;;;;1.33;1.10;;;;;;;4.64;100.00;100523.75;5018876;28;20452;-50
2020/12/19 04:26:01;;;;;;;0.20;0.20;;;;;;;4.59;100.00;100515.00;5024095;28;20464;-50
2020/12/19 04:28:28;;;;;;;0.20;0.10;;;;;;;4.65;100.00;100511.47;5025172;28;20505;-50
2020/12/19 04:30:54;;;;;;;0.20;0.10;;;;;;;4.61;100.00;100507.09;5020969;28;20493;-50
2020/12/19 04:33:21;;;;;;;0.20;0.10;;;;;;;4.66;100.00;100516.78;5018840;28;20448;-50
2020/12/19 04:35:47;;;;;;;0.20;0.10;;;;;;;4.62;100.00;100508.84;5023684;28;20497;-50
2020/12/19 04:38:13;;;;;;;0.20;0.10;;;;;;;4.63;100.00;100511.47;5025734;28;20447;-50
2020/12/19 04:40:40;;;;;;;0.20;0.10;;;;;;;4.67;100.00;100515.88;5020948;28;20455;-51
2020/12/19 04:43:19;;;;;;;0.20;0.20;;;;;;;4.69;100.00;100500.97;5015355;28;20452;-51
2020/12/19 04:45:47;;;;;;;0.20;0.20;;;;;;;4.86;100.00;100506.19;5021782;28;20475;-51
2020/12/19 04:48:17;;;;;;;0.50;0.50;;;;;;;4.82;100.00;100503.59;5025246;28;20938;-51
2020/12/19 04:50:46;;;;;;;0.30;0.30;;;;;;;4.79;100.00;100503.56;5023869;28;20458;-51
2020/12/19 04:53:20;;;;;;;0.20;0.10;;;;;;;4.82;100.00;100507.09;5018340;28;20458;-51
2020/12/19 04:55:48;;;;;;;0.40;0.40;;;;;;;4.70;100.00;100497.44;5018712;28;20503;-50
2020/12/19 04:58:21;;;;;;;0.20;0.10;;;;;;;4.77;100.00;100506.19;5017876;28;20527;-50
2020/12/19 05:00:47;;;;;;;0.20;0.20;;;;;;;4.79;100.00;100508.81;5017303;28;20455;-50
2020/12/19 05:03:14;;;;;;;0.20;0.10;;;;;;;4.76;100.00;100505.31;5021957;28;20465;-50
2020/12/19 05:05:41;;;;;;;0.20;0.10;;;;;;;4.78;100.00;100502.69;5019190;28;20460;-51
2020/12/19 05:08:08;;;;;;;1.23;1.20;;;;;;;4.93;100.00;100512.31;5019470;28;20529;-52
2020/12/19 05:10:35;;;;;;;0.20;0.20;;;;;;;4.94;100.00;100522.88;5004355;28;20858;-52
2020/12/19 05:13:01;;;;;;;0.20;0.20;;;;;;;4.67;100.00;100501.84;5019245;28;20451;-52
2020/12/19 05:15:27;;;;;;;0.20;0.10;;;;;;;4.76;100.00;100507.97;5018019;28;20496;-51
2020/12/19 05:17:59;;;;;;;0.30;0.20;;;;;;;4.83;100.00;100505.34;5027248;28;20455;-51
2020/12/19 05:20:30;;;;;;;0.20;0.20;;;;;;;5.04;100.00;100500.00;5028491;28;20454;-52
2020/12/19 05:22:58;;;;;;;0.20;0.20;;;;;;;5.00;100.00;100495.63;5024453;28;20546;-51
2020/12/19 05:25:26;;;;;;;20.83;8.83;;;;;;;4.93;100.00;100501.78;5021755;28;20465;-51
2020/12/19 05:27:53;;;;;;;0.20;0.20;;;;;;;4.83;100.00;100508.84;5025587;28;20456;-52
2020/12/19 05:30:21;;;;;;;0.20;0.10;;;;;;;4.92;100.00;100510.56;5028225;28;20941;-51
2020/12/19 05:32:52;;;;;;;0.20;0.10;;;;;;;4.94;100.00;100507.06;5024994;28;20458;-52
2020/12/19 05:35:23;;;;;;;0.30;0.30;;;;;;;4.93;100.00;100500.03;5020849;28;20498;-51
2020/12/19 05:37:59;;;;;;;0.30;0.20;;;;;;;4.94;100.00;100500.94;5023079;28;20494;-51
2020/12/19 05:40:26;;;;;;;0.20;0.10;;;;;;;4.89;100.00;100497.41;5028240;28;20453;-51
2020/12/19 05:42:53;;;;;;;0.20;0.20;;;;;;;4.91;100.00;100501.78;5027405;28;20949;-51
2020/12/19 05:45:21;;;;;;;0.30;0.20;;;;;;;4.82;100.00;100506.22;5022500;28;20496;-51
2020/12/19 05:47:48;;;;;;;0.30;0.20;;;;;;;4.73;100.00;100497.44;5021962;28;20449;-51
2020/12/19 05:50:15;;;;;;;0.20;0.10;;;;;;;4.82;100.00;100498.31;5029447;28;20452;-51
2020/12/19 05:52:42;;;;;;;0.20;0.20;;;;;;;4.81;100.00;100499.19;5028775;28;20463;-51
2020/12/19 05:55:17;;;;;;;0.20;0.10;;;;;;;4.91;100.00;100493.00;5021243;28;20495;-52
2020/12/19 05:57:43;;;;;;;0.20;0.10;;;;;;;5.02;100.00;100497.38;5008066;28;20512;-51
2020/12/19 06:00:12;;;;;;;0.20;0.20;;;;;;;5.04;100.00;100492.97;5025996;28;20464;-51
2020/12/19 06:02:39;;;;;;;0.20;0.13;;;;;;;5.00;100.00;100504.41;5027581;28;20447;-51
2020/12/19 06:05:15;;;;;;;0.20;0.20;;;;;;;5.00;100.00;100503.53;5005712;28;20480;-52
2020/12/19 06:07:46;;;;;;;0.20;0.20;;;;;;;4.96;100.00;100494.78;5027663;28;20933;-51
2020/12/19 06:10:14;;;;;;;0.20;0.10;;;;;;;4.91;100.00;100500.91;5025410;28;20454;-51
2020/12/19 06:12:45;;;;;;;0.20;0.20;;;;;;;4.86;100.00;100503.56;5020529;28;20455;-51
2020/12/19 06:15:56;;;;;;;0.20;0.10;;;;;;;4.85;100.00;100519.38;5022068;28;20496;-51
2020/12/19 06:18:44;;;;;;;0.20;0.20;;;;;;;4.64;100.00;100518.50;5007170;28;20458;-50
2020/12/19 06:21:11;;;;;;;0.20;0.20;;;;;;;4.82;100.00;100501.81;5026436;28;20456;-50
2020/12/19 06:23:38;;;;;;;0.20;0.10;;;;;;;4.66;100.00;100502.69;5027630;28;20459;-50
2020/12/19 06:26:06;;;;;;;0.20;0.10;;;;;;;4.69;100.00;100502.72;5021226;28;20554;-51
2020/12/19 06:28:41;;;;;;;0.20;0.10;;;;;;;4.72;100.00;100502.72;5020887;28;20449;-51
2020/12/19 06:31:11;;;;;;;0.20;0.20;;;;;;;4.67;100.00;100501.84;5025099;28;20459;-50
2020/12/19 06:33:40;;;;;;;0.20;0.20;;;;;;;4.60;100.00;100500.09;5027398;28;20456;-50
2020/12/19 06:36:32;;;;;;;0.63;0.63;;;;;;;4.39;100.00;100490.47;5023412;28;20491;-50
2020/12/19 06:39:10;;;;;;;0.20;0.17;;;;;;;4.48;100.00;100490.44;5023425;28;20827;-50
2020/12/19 06:41:55;;;;;;;0.20;0.10;;;;;;;4.34;100.00;100485.19;5020369;28;20856;-50
2020/12/19 06:44:26;;;;;;;0.20;0.10;;;;;;;4.33;100.00;100490.44;5024868;28;20475;-51
2020/12/19 06:46:54;;;;;;;0.20;0.10;;;;;;;4.27;100.00;100499.25;5020256;28;20448;-51
2020/12/19 06:49:23;;;;;;;0.30;0.10;;;;;;;4.16;100.00;100499.22;5021281;28;20938;-50
2020/12/19 06:52:21;;;;;;;0.20;0.10;;;;;;;4.08;100.00;100516.72;5027136;28;20460;-51
2020/12/19 06:54:50;;;;;;;0.20;0.20;;;;;;;3.92;100.00;100514.97;5026823;28;20475;-51
2020/12/19 06:57:26;;;;;;;0.20;0.10;;;;;;;3.96;100.00;100521.09;5013859;28;20536;-51
2020/12/19 06:59:55;;;;;;;0.20;0.20;;;;;;;3.77;100.00;100512.31;5026958;28;20967;-51
2020/12/19 07:02:25;;;;;;;0.20;0.20;;;;;;;4.14;100.00;100514.13;5027241;28;20884;-51
2020/12/19 07:04:52;;;;;;;0.20;0.10;;;;;;;3.90;100.00;100516.72;5023843;28;20479;-51
2020/12/19 07:07:26;;;;;;;0.20;0.20;;;;;;;3.77;100.00;100522.81;5019900;28;20502;-51
2020/12/19 07:09:56;;;;;;;0.20;0.20;;;;;;;3.86;100.00;100521.09;5025761;28;20444;-51
2020/12/19 07:12:51;;;;;;;0.30;0.20;;;;;;;3.84;100.00;100514.09;5007272;28;20449;-51
2020/12/19 07:15:53;;;;;;;0.20;0.10;;;;;;;4.14;100.00;100519.38;5024137;28;20495;-51
2020/12/19 07:18:26;;;;;;;0.20;0.10;;;;;;;4.17;100.00;100515.88;4982264;28;20470;-51
2020/12/19 07:21:18;;;;;;;0.20;0.20;;;;;;;4.28;100.00;100508.00;5020248;28;20827;-51
2020/12/19 07:23:44;;;;;;;0.40;0.40;;;;;;;4.24;100.00;100509.72;5024423;28;20489;-51
2020/12/19 07:26:11;;;;;;;2.40;1.60;;;;;;;4.27;100.00;100512.38;5015926;28;20460;-50
2020/12/19 07:28:37;;;;;;;0.30;0.20;;;;;;;4.29;100.00;100517.66;5011131;28;20445;-51
2020/12/19 07:31:03;;;;;;;0.20;0.10;;;;;;;4.20;100.00;100515.00;5024772;28;20801;-51
2020/12/19 07:33:29;;;;;;;0.20;0.10;;;;;;;4.22;100.00;100518.50;5026638;28;20456;-51
2020/12/19 07:35:56;;;;;;;0.30;0.20;;;;;;;4.14;100.00;100521.16;5020948;28;20903;-50
2020/12/19 07:38:22;;;;;;;14.50;4.90;;;;;;;4.26;100.00;100533.44;5019615;28;20968;-51
2020/12/19 07:40:56;;;;;;;0.20;0.10;;;;;;;4.20;100.00;100534.28;5024195;28;20456;-51
2020/12/19 07:43:23;;;;;;;0.20;0.13;;;;;;;4.17;100.00;100526.41;5026121;28;20448;-51
2020/12/19 07:45:56;;;;;;;0.20;0.17;;;;;;;4.23;100.00;100534.28;5022837;28;20479;-51
2020/12/19 07:48:22;;;;;;;0.20;0.10;;;;;;;4.31;100.00;100535.19;5019203;28;20448;-51
2020/12/19 07:50:48;;;;;;;0.20;0.20;;;;;;;4.44;100.00;100530.81;5021902;28;20460;-51
2020/12/19 07:53:15;;;;;;;0.20;0.10;;;;;;;4.53;100.00;100529.94;5025373;28;20543;-51
2020/12/19 07:55:49;;;;;;;0.20;0.20;;;;;;;4.54;100.00;100532.56;5015217;28;20495;-53
2020/12/19 07:58:18;;;;;;;0.20;0.10;;;;;;;4.56;100.00;100533.44;5013190;28;20467;-52
2020/12/19 08:00:44;;;;;;;0.30;0.20;;;;;;;4.58;100.00;100530.81;5019293;28;20450;-51
2020/12/19 08:03:12;;;;;;;0.20;0.20;;;;;;;4.63;100.00;100540.44;5023863;28;20455;-51
2020/12/19 08:05:38;;;;;;;1.23;0.87;;;;;;;4.55;100.00;100538.72;5019792;28;20475;-51
2020/12/19 08:08:04;;;;;;;0.20;0.20;;;;;;;4.56;100.00;100538.72;5020148;28;20478;-51
2020/12/19 08:10:30;;;;;;;0.20;0.20;;;;;;;4.61;100.00;100539.56;5018116;28;20828;-51
2020/12/19 08:12:56;;;;;;;0.20;0.10;;;;;;;4.68;100.00;100541.34;5007122;28;20444;-51
2020/12/19 08:15:23;;;;;;;0.20;0.10;;;;;;;4.74;100.00;100538.69;5025910;28;20499;-51
2020/12/19 08:17:55;;;;;;;0.20;0.10;;;;;;;4.65;100.00;100543.94;5019581;28;20450;-52
2020/12/19 08:20:33;;;;;;;0.20;0.10;;;;;;;4.66;100.00;100547.44;5013276;28;20441;-51
2020/12/19 08:23:02;;;;;;;0.20;0.20;;;;;;;4.68;100.00;100537.81;5019593;28;20444;-52
2020/12/19 08:25:29;;;;;;;0.20;0.10;;;;;;;4.70;100.00;100550.09;5018787;28;20466;-51
2020/12/19 08:27:56;;;;;;;0.20;0.10;;;;;;;4.51;100.00;100547.47;5022158;28;20456;-51
2020/12/19 08:30:25;;;;;;;0.20;0.20;;;;;;;4.65;100.00;100549.22;5028454;28;20887;-51
2020/12/19 08:32:58;;;;;;;0.20;0.20;;;;;;;4.51;100.00;100548.34;5021808;28;20455;-52
2020/12/19 08:35:26;;;;;;;0.20;0.10;;;;;;;4.50;100.00;100556.22;5021492;28;20939;-52
2020/12/19 08:38:23;;;;;;;0.20;0.10;;;;;;;4.59;100.00;100551.00;5025601;28;20448;-51
2020/12/19 08:40:56;;;;;;;0.20;0.10;;;;;;;4.55;100.00;100554.50;5023021;28;20697;-51
2020/12/19 08:43:34;;;;;;;0.20;0.10;;;;;;;4.59;100.00;100554.50;5022877;28;20463;-51
2020/12/19 08:46:08;;;;;;;0.20;0.10;;;;;;;4.47;100.00;100558.00;5024668;28;20467;-51
2020/12/19 08:48:34;;;;;;;0.20;0.10;;;;;;;4.57;100.00;100551.00;5008149;28;20458;-51
2020/12/19 08:51:11;;;;;;;0.20;0.13;;;;;;;4.70;100.00;100551.88;5023437;28;20527;-51
2020/12/19 08:53:37;;;;;;;0.20;0.10;;;;;;;4.65;100.00;100548.34;5025704;28;20517;-51
2020/12/19 08:56:15;;;;;;;0.20;0.20;;;;;;;4.57;100.00;100555.38;5024878;28;20496;-50
2020/12/19 08:58:42;;;;;;;0.20;0.10;;;;;;;4.40;100.00;100548.34;5028318;28;20501;-51
2020/12/19 09:01:14;;;;;;;0.20;0.20;;;;;;;4.52;100.00;100552.72;5022705;28;20444;-50
2020/12/19 09:03:41;;;;;;;0.20;0.10;;;;;;;4.70;100.00;100552.75;5020306;28;20456;-52
2020/12/19 09:06:12;;;;;;;0.40;0.40;;;;;;;4.66;100.00;100556.25;5027159;28;20511;-51
2020/12/19 09:08:47;;;;;;;0.30;0.20;;;;;;;4.81;100.00;100549.22;5024361;28;20440;-51
2020/12/19 09:11:28;;;;;;;0.20;0.10;;;;;;;4.74;100.00;100550.97;5024329;28;20436;-51
2020/12/19 09:14:10;;;;;;;0.30;0.20;;;;;;;4.69;100.00;100553.63;5020404;28;20455;-50
2020/12/19 09:16:51;;;;;;;2.00;1.90;;;;;;;4.74;100.00;100564.13;5024363;28;20472;-52
2020/12/19 09:19:18;;;;;;;0.20;0.20;;;;;;;4.72;100.00;100558.88;5021269;28;20436;-51
2020/12/19 09:21:55;;;;;;;0.20;0.20;;;;;;;4.76;100.00;100559.75;5023421;28;20440;-51
2020/12/19 09:24:22;;;;;;;0.30;0.20;;;;;;;4.80;100.00;100563.25;5022997;28;20471;-51
2020/12/19 09:26:48;;;;;;;0.20;0.20;;;;;;;4.84;100.00;100565.03;5021517;28;20437;-51
2020/12/19 09:29:15;;;;;;;0.20;0.10;;;;;;;4.90;100.00;100557.97;5026967;28;20444;-51
2020/12/19 09:31:47;;;;;;;0.20;0.10;;;;;;;5.01;100.00;100558.84;5018288;28;20463;-52
2020/12/19 09:34:14;;;;;;;0.20;0.20;;;;;;;5.08;100.00;100561.47;5023453;28;20471;-51
2020/12/19 09:36:40;;;;;;;0.30;0.20;;;;;;;5.15;100.00;100568.47;5021774;28;20491;-51
2020/12/19 09:39:06;;;;;;;0.20;0.10;;;;;;;5.25;100.00;100576.38;5026013;28;20523;-51
2020/12/19 09:41:33;;;;;;;0.20;0.13;;;;;;;5.38;100.00;100556.13;5021967;28;20950;-51
2020/12/19 09:43:59;;;;;;;1.43;1.37;;;;;;;5.42;100.00;100563.13;5024499;28;20467;-51
2020/12/19 09:46:25;;;;;;;0.20;0.20;;;;;;;5.71;100.00;100562.13;5027793;28;20447;-51
2020/12/19 09:48:51;;;;;;;0.20;0.10;;;;;;;5.59;100.00;100563.94;5018880;28;20890;-51
2020/12/19 09:51:17;;;;;;;0.20;0.17;;;;;;;5.53;100.00;100563.97;5021264;28;20451;-51
2020/12/19 09:53:44;;;;;;;0.30;0.20;;;;;;;5.41;100.00;100558.75;5016061;28;20817;-51
2020/12/19 09:56:10;;;;;;;0.20;0.20;;;;;;;5.20;100.00;100562.31;5018815;28;21015;-51
2020/12/19 09:58:36;;;;;;;0.30;0.30;;;;;;;5.33;100.00;100557.88;5007204;28;20455;-52
2020/12/19 10:01:02;;;;;;;0.20;0.20;;;;;;;5.37;100.00;100553.50;5015472;28;20452;-52
2020/12/19 10:03:28;;;;;;;0.20;0.20;;;;;;;5.28;100.00;100562.31;5012975;28;20832;-52
2020/12/19 10:05:54;;;;;;;0.20;0.10;;;;;;;5.31;100.00;100563.16;5019618;28;20475;-52
2020/12/19 10:08:23;;;;;;;0.20;0.10;;;;;;;5.42;100.00;100562.25;5023786;28;20791;-52
2020/12/19 10:10:50;;;;;;;0.20;0.10;;;;;;;5.39;100.00;100554.38;5019573;28;20455;-52
2020/12/19 10:13:17;;;;;;;0.20;0.10;;;;;;;5.30;100.00;100555.25;5004987;28;20457;-52
2020/12/19 10:15:43;;;;;;;0.20;0.20;;;;;;;5.22;100.00;100555.31;5011094;28;20506;-52
2020/12/19 10:18:09;;;;;;;0.30;0.10;;;;;;;5.53;100.00;100556.06;5019776;28;20452;-52
2020/12/19 10:20:36;;;;;;;0.30;0.20;;;;;;;5.41;100.00;100553.47;5021713;28;20453;-52
2020/12/19 10:23:02;;;;;;;0.30;0.20;;;;;;;5.45;100.00;100547.28;5019820;28;20443;-52
2020/12/19 10:25:28;;;;;;;0.20;0.20;;;;;;;5.46;100.00;100550.81;5015784;28;20471;-52
2020/12/19 10:27:55;;;;;;;0.20;0.10;;;;;;;5.58;100.00;100551.66;5019020;28;20457;-52
2020/12/19 10:30:21;;;;;;;0.20;0.20;;;;;;;5.63;100.00;100544.59;5022218;28;20937;-52
2020/12/19 10:32:47;;;;;;;0.23;0.13;;;;;;;5.79;100.00;100547.16;5019781;28;20462;-52
2020/12/19 10:35:13;;;;;;;0.77;0.77;;;;;;;5.83;100.00;100538.34;5015539;28;20583;-53
2020/12/19 10:37:39;;;;;;;0.20;0.10;;;;;;;5.97;100.00;100535.66;5018578;28;20518;-53
2020/12/19 10:40:05;;;;;;;0.70;0.70;;;;;;;6.05;100.00;100529.47;5013139;28;20766;-53
2020/12/19 10:42:32;;;;;;;1.60;1.60;;;;;;;6.07;100.00;100527.69;5014024;28;20518;-53
2020/12/19 10:44:58;;;;;;;0.30;0.10;;;;;;;6.20;100.00;100526.72;5021886;28;20476;-53
2020/12/19 10:47:24;;;;;;;0.30;0.20;;;;;;;6.20;100.00;100524.09;5015579;28;20448;-53
2020/12/19 10:49:51;;;;;;;0.30;0.20;;;;;;;6.13;100.00;100527.63;5020016;28;20458;-53
2020/12/19 10:52:18;;;;;;;0.30;0.20;;;;;;;6.26;100.00;100522.28;5018305;28;20456;-52
2020/12/19 10:54:44;;;;;;;0.20;0.10;;;;;;;6.15;100.00;100524.97;5019241;28;20819;-53
2020/12/19 10:57:11;;;;;;;2.10;2.10;;;;;;;6.22;100.00;100506.47;5017654;28;20788;-52
2020/12/19 10:59:37;;;;;;;0.40;0.40;;;;;;;6.03;100.00;100514.50;5015899;28;20444;-52
2020/12/19 11:02:03;;;;;;;0.20;0.20;;;;;;;6.02;100.00;100508.34;5013710;28;20448;-52
2020/12/19 11:04:29;;;;;;;0.30;0.17;;;;;;;6.07;100.00;100511.84;5017969;28;20488;-52
2020/12/19 11:06:55;;;;;;;0.30;0.27;;;;;;;6.11;100.00;100507.44;5020816;28;21014;-51
2020/12/19 11:09:21;;;;;;;0.40;0.40;;;;;;;6.14;100.00;100510.91;5011272;28;20456;-52
2020/12/19 11:11:55;;;;;;;0.33;0.33;;;;;;;6.18;100.00;100495.97;5006597;28;20453;-52
2020/12/19 11:14:23;;;;;;;0.30;0.20;;;;;;;6.41;100.00;100485.19;5020525;28;20500;-52
2020/12/19 11:16:49;;;;;;;0.30;0.20;;;;;;;6.18;100.00;100488.03;5021059;28;20483;-52
2020/12/19 11:19:18;;;;;;;0.30;0.20;;;;;;;6.41;100.00;100486.06;5015484;28;20495;-53
2020/12/19 11:21:45;;;;;;;0.30;0.20;;;;;;;6.24;100.00;100483.56;5015922;28;20805;-52
2020/12/19 11:24:13;;;;;;;0.97;0.97;;;;;;;6.27;100.00;100484.44;5022552;28;20808;-52
2020/12/19 11:26:41;;;;;;;0.30;0.20;;;;;;;6.31;100.00;100483.53;5020721;28;20448;-52
2020/12/19 11:29:09;;;;;;;0.30;0.20;;;;;;;6.41;100.00;100485.19;5021643;28;20459;-52
2020/12/19 11:31:37;;;;;;;0.20;0.10;;;;;;;6.46;100.00;100480.78;5021685;28;20456;-52